sensor_id;sensor_type;location;lat;lon;timestamp;temperature;humidity
52643;DHT22;38531;53.296;6.614;2023-07-31T00:02:06;16.60;99.90
52643;DHT22;38531;53.296;6.614;2023-07-31T00:04:32;16.60;99.90
52643;DHT22;38531;53.296;6.614;2023-07-31T00:06:58;16.60;99.90
52643;DHT22;38531;53.296;6.614;2023-07-31T00:09:24;16.60;99.90
52643;DHT22;38531;53.296;6.614;2023-07-31T00:11:54;16.60;99.90
52643;DHT22;38531;53.296;6.614;2023-07-31T00:14:20;16.50;99.90
52643;DHT22;38531;53.296;6.614;2023-07-31T00:16:46;16.50;99.90
52643;DHT22;38531;53.296;6.614;2023-07-31T00:19:14;16.50;99.90
52643;DHT22;38531;53.296;6.614;2023-07-31T00:21:40;16.50;99.90
52643;DHT22;38531;53.296;6.614;2023-07-31T00:24:06;16.50;99.90
52643;DHT22;38531;53.296;6.614;2023-07-31T00:26:31;16.50;99.90
52643;DHT22;38531;53.296;6.614;2023-07-31T00:28:57;16.50;99.90
52643;DHT22;38531;53.296;6.614;2023-07-31T00:31:23;16.50;99.90
52643;DHT22;38531;53.296;6.614;2023-07-31T00:33:51;16.50;99.90
52643;DHT22;38531;53.296;6.614;2023-07-31T00:36:17;16.50;99.90
52643;DHT22;38531;53.296;6.614;2023-07-31T00:38:43;16.50;99.90
52643;DHT22;38531;53.296;6.614;2023-07-31T00:41:12;16.50;99.90
52643;DHT22;38531;53.296;6.614;2023-07-31T00:43:38;16.50;99.90
52643;DHT22;38531;53.296;6.614;2023-07-31T00:46:04;16.40;99.90
52643;DHT22;38531;53.296;6.614;2023-07-31T00:48:30;16.50;99.90
52643;DHT22;38531;53.296;6.614;2023-07-31T00:50:56;16.50;99.90
52643;DHT22;38531;53.296;6.614;2023-07-31T00:53:24;16.40;99.90
52643;DHT22;38531;53.296;6.614;2023-07-31T00:55:52;16.50;99.90
52643;DHT22;38531;53.296;6.614;2023-07-31T00:58:18;16.40;99.90
52643;DHT22;38531;53.296;6.614;2023-07-31T01:00:43;16.40;99.90
52643;DHT22;38531;53.296;6.614;2023-07-31T01:03:10;16.40;99.90
52643;DHT22;38531;53.296;6.614;2023-07-31T01:06:14;16.40;99.90
52643;DHT22;38531;53.296;6.614;2023-07-31T01:09:04;16.40;99.90
52643;DHT22;38531;53.296;6.614;2023-07-31T01:11:38;16.40;99.90
52643;DHT22;38531;53.296;6.614;2023-07-31T01:14:07;16.30;99.90
52643;DHT22;38531;53.296;6.614;2023-07-31T01:16:33;16.30;99.90
52643;DHT22;38531;53.296;6.614;2023-07-31T01:18:59;16.30;99.90
52643;DHT22;38531;53.296;6.614;2023-07-31T01:21:51;16.30;99.90
52643;DHT22;38531;53.296;6.614;2023-07-31T01:26:57;16.30;99.90
52643;DHT22;38531;53.296;6.614;2023-07-31T01:32:08;16.20;99.90
52643;DHT22;38531;53.296;6.614;2023-07-31T01:34:38;16.20;99.90
52643;DHT22;38531;53.296;6.614;2023-07-31T01:37:05;16.20;99.90
52643;DHT22;38531;53.296;6.614;2023-07-31T01:39:34;16.20;99.90
52643;DHT22;38531;53.296;6.614;2023-07-31T01:41:59;16.20;99.90
52643;DHT22;38531;53.296;6.614;2023-07-31T01:44:28;16.20;99.90
52643;DHT22;38531;53.296;6.614;2023-07-31T01:46:54;16.10;99.90
52643;DHT22;38531;53.296;6.614;2023-07-31T01:49:20;16.10;99.90
52643;DHT22;38531;53.296;6.614;2023-07-31T01:51:48;16.10;99.90
52643;DHT22;38531;53.296;6.614;2023-07-31T01:54:17;16.10;99.90
52643;DHT22;38531;53.296;6.614;2023-07-31T01:56:43;16.10;99.90
52643;DHT22;38531;53.296;6.614;2023-07-31T01:59:09;16.10;99.90
52643;DHT22;38531;53.296;6.614;2023-07-31T02:01:35;16.00;99.90
52643;DHT22;38531;53.296;6.614;2023-07-31T02:04:03;16.10;99.90
52643;DHT22;38531;53.296;6.614;2023-07-31T02:06:35;16.10;99.90
52643;DHT22;38531;53.296;6.614;2023-07-31T02:09:23;16.10;99.90
52643;DHT22;38531;53.296;6.614;2023-07-31T02:11:49;16.10;99.90
52643;DHT22;38531;53.296;6.614;2023-07-31T02:14:23;16.10;99.90
52643;DHT22;38531;53.296;6.614;2023-07-31T02:16:53;16.00;99.90
52643;DHT22;38531;53.296;6.614;2023-07-31T02:19:24;16.00;99.90
52643;DHT22;38531;53.296;6.614;2023-07-31T02:21:52;16.00;99.90
52643;DHT22;38531;53.296;6.614;2023-07-31T02:24:29;16.00;99.90
52643;DHT22;38531;53.296;6.614;2023-07-31T02:27:17;15.90;99.90
52643;DHT22;38531;53.296;6.614;2023-07-31T02:29:56;16.00;99.90
52643;DHT22;38531;53.296;6.614;2023-07-31T02:32:36;15.90;99.90
52643;DHT22;38531;53.296;6.614;2023-07-31T02:35:02;15.80;99.90
52643;DHT22;38531;53.296;6.614;2023-07-31T02:37:36;15.90;99.90
52643;DHT22;38531;53.296;6.614;2023-07-31T02:40:13;16.00;99.90
52643;DHT22;38531;53.296;6.614;2023-07-31T02:42:41;15.90;99.90
52643;DHT22;38531;53.296;6.614;2023-07-31T02:45:16;15.90;99.90
52643;DHT22;38531;53.296;6.614;2023-07-31T02:48:05;15.90;99.90
52643;DHT22;38531;53.296;6.614;2023-07-31T02:50:42;15.90;99.90
52643;DHT22;38531;53.296;6.614;2023-07-31T02:53:08;15.90;99.90
52643;DHT22;38531;53.296;6.614;2023-07-31T02:55:57;15.90;99.90
52643;DHT22;38531;53.296;6.614;2023-07-31T02:58:27;15.90;99.90
52643;DHT22;38531;53.296;6.614;2023-07-31T03:00:58;15.90;99.90
52643;DHT22;38531;53.296;6.614;2023-07-31T03:03:42;15.90;99.90
52643;DHT22;38531;53.296;6.614;2023-07-31T03:06:20;15.90;99.90
52643;DHT22;38531;53.296;6.614;2023-07-31T03:08:53;15.90;99.90
52643;DHT22;38531;53.296;6.614;2023-07-31T03:11:26;15.90;99.90
52643;DHT22;38531;53.296;6.614;2023-07-31T03:13:59;15.90;99.90
52643;DHT22;38531;53.296;6.614;2023-07-31T03:16:38;15.90;99.90
52643;DHT22;38531;53.296;6.614;2023-07-31T03:19:29;15.80;99.90
52643;DHT22;38531;53.296;6.614;2023-07-31T03:22:25;15.90;99.90
52643;DHT22;38531;53.296;6.614;2023-07-31T03:25:08;15.80;99.90
52643;DHT22;38531;53.296;6.614;2023-07-31T03:27:52;15.80;99.90
52643;DHT22;38531;53.296;6.614;2023-07-31T03:30:34;15.80;99.90
52643;DHT22;38531;53.296;6.614;2023-07-31T03:41:01;16.00;99.90
52643;DHT22;38531;53.296;6.614;2023-07-31T03:44:13;16.10;99.90
52643;DHT22;38531;53.296;6.614;2023-07-31T03:47:26;15.80;99.90
52643;DHT22;38531;53.296;6.614;2023-07-31T03:50:13;15.80;99.90
52643;DHT22;38531;53.296;6.614;2023-07-31T03:53:18;15.80;99.90
52643;DHT22;38531;53.296;6.614;2023-07-31T03:56:22;15.80;99.90
52643;DHT22;38531;53.296;6.614;2023-07-31T04:02:45;15.90;99.90
52643;DHT22;38531;53.296;6.614;2023-07-31T04:05:41;15.80;99.90
52643;DHT22;38531;53.296;6.614;2023-07-31T04:08:51;15.80;99.90
52643;DHT22;38531;53.296;6.614;2023-07-31T04:11:42;15.80;99.90
52643;DHT22;38531;53.296;6.614;2023-07-31T04:26:09;15.80;99.90
52643;DHT22;38531;53.296;6.614;2023-07-31T04:31:50;15.80;99.90
52643;DHT22;38531;53.296;6.614;2023-07-31T04:35:00;15.70;99.90
52643;DHT22;38531;53.296;6.614;2023-07-31T04:38:24;15.80;99.90
52643;DHT22;38531;53.296;6.614;2023-07-31T04:41:16;15.90;99.90
52643;DHT22;38531;53.296;6.614;2023-07-31T04:44:17;15.80;99.90
52643;DHT22;38531;53.296;6.614;2023-07-31T04:54:26;15.60;99.90
52643;DHT22;38531;53.296;6.614;2023-07-31T04:57:18;15.80;99.90
52643;DHT22;38531;53.296;6.614;2023-07-31T05:07:55;15.80;99.90
52643;DHT22;38531;53.296;6.614;2023-07-31T05:31:47;15.90;99.90
52643;DHT22;38531;53.296;6.614;2023-07-31T05:35:11;15.90;99.90
52643;DHT22;38531;53.296;6.614;2023-07-31T05:38:14;15.90;99.90
52643;DHT22;38531;53.296;6.614;2023-07-31T05:45:12;15.90;99.90
52643;DHT22;38531;53.296;6.614;2023-07-31T05:55:20;15.90;99.90
52643;DHT22;38531;53.296;6.614;2023-07-31T05:58:19;16.00;99.90
52643;DHT22;38531;53.296;6.614;2023-07-31T06:01:21;16.00;99.90
52643;DHT22;38531;53.296;6.614;2023-07-31T06:04:25;16.00;99.90
52643;DHT22;38531;53.296;6.614;2023-07-31T06:10:42;16.10;99.90
52643;DHT22;38531;53.296;6.614;2023-07-31T06:13:30;16.20;99.90
52643;DHT22;38531;53.296;6.614;2023-07-31T06:15:59;16.10;99.90
52643;DHT22;38531;53.296;6.614;2023-07-31T06:20:59;16.20;99.90
52643;DHT22;38531;53.296;6.614;2023-07-31T06:27:24;16.30;99.90
52643;DHT22;38531;53.296;6.614;2023-07-31T07:02:49;16.90;99.90
52643;DHT22;38531;53.296;6.614;2023-07-31T07:05:32;16.70;99.90
52643;DHT22;38531;53.296;6.614;2023-07-31T07:18:26;17.10;99.90
52643;DHT22;38531;53.296;6.614;2023-07-31T07:21:00;17.10;99.90
52643;DHT22;38531;53.296;6.614;2023-07-31T07:23:46;17.20;99.90
52643;DHT22;38531;53.296;6.614;2023-07-31T07:26:12;17.30;99.90
52643;DHT22;38531;53.296;6.614;2023-07-31T07:28:37;17.40;99.90
52643;DHT22;38531;53.296;6.614;2023-07-31T07:31:06;17.50;99.90
52643;DHT22;38531;53.296;6.614;2023-07-31T07:33:49;17.50;99.90
52643;DHT22;38531;53.296;6.614;2023-07-31T07:36:17;17.60;99.90
52643;DHT22;38531;53.296;6.614;2023-07-31T07:38:43;17.60;99.90
52643;DHT22;38531;53.296;6.614;2023-07-31T07:41:11;17.60;99.90
52643;DHT22;38531;53.296;6.614;2023-07-31T07:43:40;17.60;99.90
52643;DHT22;38531;53.296;6.614;2023-07-31T07:46:05;17.50;99.90
52643;DHT22;38531;53.296;6.614;2023-07-31T07:48:31;17.40;99.90
52643;DHT22;38531;53.296;6.614;2023-07-31T07:50:57;17.40;99.90
52643;DHT22;38531;53.296;6.614;2023-07-31T07:53:23;17.40;99.90
52643;DHT22;38531;53.296;6.614;2023-07-31T07:55:48;17.40;99.90
52643;DHT22;38531;53.296;6.614;2023-07-31T07:58:14;17.50;99.90
52643;DHT22;38531;53.296;6.614;2023-07-31T08:00:40;17.50;99.90
52643;DHT22;38531;53.296;6.614;2023-07-31T08:03:08;17.50;99.90
52643;DHT22;38531;53.296;6.614;2023-07-31T08:05:35;17.50;99.90
52643;DHT22;38531;53.296;6.614;2023-07-31T08:08:00;17.50;99.90
52643;DHT22;38531;53.296;6.614;2023-07-31T08:10:29;17.50;99.90
52643;DHT22;38531;53.296;6.614;2023-07-31T08:12:55;17.40;99.90
52643;DHT22;38531;53.296;6.614;2023-07-31T08:15:23;17.40;99.90
52643;DHT22;38531;53.296;6.614;2023-07-31T08:17:49;17.50;99.90
52643;DHT22;38531;53.296;6.614;2023-07-31T08:20:15;17.50;99.90
52643;DHT22;38531;53.296;6.614;2023-07-31T08:22:41;17.50;99.90
52643;DHT22;38531;53.296;6.614;2023-07-31T08:25:07;17.20;99.90
52643;DHT22;38531;53.296;6.614;2023-07-31T08:27:33;17.50;99.90
52643;DHT22;38531;53.296;6.614;2023-07-31T08:29:59;17.60;99.90
52643;DHT22;38531;53.296;6.614;2023-07-31T08:32:24;17.60;99.90
52643;DHT22;38531;53.296;6.614;2023-07-31T08:34:52;17.70;99.90
52643;DHT22;38531;53.296;6.614;2023-07-31T08:37:28;17.80;99.90
52643;DHT22;38531;53.296;6.614;2023-07-31T08:39:53;17.80;99.90
52643;DHT22;38531;53.296;6.614;2023-07-31T08:42:20;18.00;99.90
52643;DHT22;38531;53.296;6.614;2023-07-31T08:44:46;18.20;99.90
52643;DHT22;38531;53.296;6.614;2023-07-31T08:47:13;18.20;99.90
52643;DHT22;38531;53.296;6.614;2023-07-31T08:49:59;18.20;99.90
52643;DHT22;38531;53.296;6.614;2023-07-31T08:52:25;18.20;99.90
52643;DHT22;38531;53.296;6.614;2023-07-31T08:54:51;18.20;99.90
52643;DHT22;38531;53.296;6.614;2023-07-31T08:57:17;18.30;99.90
52643;DHT22;38531;53.296;6.614;2023-07-31T08:59:45;18.30;99.90
52643;DHT22;38531;53.296;6.614;2023-07-31T09:02:12;18.40;99.90
52643;DHT22;38531;53.296;6.614;2023-07-31T09:04:40;18.40;99.90
52643;DHT22;38531;53.296;6.614;2023-07-31T09:07:06;18.50;99.90
52643;DHT22;38531;53.296;6.614;2023-07-31T09:09:32;18.50;99.90
52643;DHT22;38531;53.296;6.614;2023-07-31T09:11:58;18.40;99.90
52643;DHT22;38531;53.296;6.614;2023-07-31T09:14:25;18.40;99.90
52643;DHT22;38531;53.296;6.614;2023-07-31T09:16:55;18.50;99.90
52643;DHT22;38531;53.296;6.614;2023-07-31T09:19:32;18.50;99.90
52643;DHT22;38531;53.296;6.614;2023-07-31T09:21:59;18.40;99.90
52643;DHT22;38531;53.296;6.614;2023-07-31T09:24:29;18.50;99.90
52643;DHT22;38531;53.296;6.614;2023-07-31T09:26:55;18.50;99.90
52643;DHT22;38531;53.296;6.614;2023-07-31T09:29:22;18.50;99.90
52643;DHT22;38531;53.296;6.614;2023-07-31T09:31:48;18.50;99.90
52643;DHT22;38531;53.296;6.614;2023-07-31T09:34:14;18.50;99.90
52643;DHT22;38531;53.296;6.614;2023-07-31T09:36:41;18.50;99.90
52643;DHT22;38531;53.296;6.614;2023-07-31T09:39:09;18.60;99.90
52643;DHT22;38531;53.296;6.614;2023-07-31T09:41:42;18.60;99.90
52643;DHT22;38531;53.296;6.614;2023-07-31T09:44:08;18.70;99.90
52643;DHT22;38531;53.296;6.614;2023-07-31T09:46:37;18.70;99.90
52643;DHT22;38531;53.296;6.614;2023-07-31T09:51:35;19.00;99.90
52643;DHT22;38531;53.296;6.614;2023-07-31T09:54:14;19.10;99.90
52643;DHT22;38531;53.296;6.614;2023-07-31T09:56:45;19.20;99.90
52643;DHT22;38531;53.296;6.614;2023-07-31T09:59:16;19.40;99.90
52643;DHT22;38531;53.296;6.614;2023-07-31T10:01:43;19.40;99.90
52643;DHT22;38531;53.296;6.614;2023-07-31T10:04:10;19.40;99.90
52643;DHT22;38531;53.296;6.614;2023-07-31T10:06:37;19.50;99.90
52643;DHT22;38531;53.296;6.614;2023-07-31T10:09:08;19.40;99.90
52643;DHT22;38531;53.296;6.614;2023-07-31T10:11:41;19.30;99.90
52643;DHT22;38531;53.296;6.614;2023-07-31T10:14:07;19.30;99.90
52643;DHT22;38531;53.296;6.614;2023-07-31T10:16:35;19.30;99.90
52643;DHT22;38531;53.296;6.614;2023-07-31T10:19:01;19.30;99.90
52643;DHT22;38531;53.296;6.614;2023-07-31T10:21:28;19.20;99.90
52643;DHT22;38531;53.296;6.614;2023-07-31T10:23:55;19.20;99.90
52643;DHT22;38531;53.296;6.614;2023-07-31T10:26:23;19.10;99.90
52643;DHT22;38531;53.296;6.614;2023-07-31T10:28:50;19.10;99.90
52643;DHT22;38531;53.296;6.614;2023-07-31T10:31:27;19.00;99.90
52643;DHT22;38531;53.296;6.614;2023-07-31T10:33:54;19.00;99.90
52643;DHT22;38531;53.296;6.614;2023-07-31T10:36:21;19.10;99.90
52643;DHT22;38531;53.296;6.614;2023-07-31T10:38:50;19.10;99.90
52643;DHT22;38531;53.296;6.614;2023-07-31T10:41:16;19.20;99.90
52643;DHT22;38531;53.296;6.614;2023-07-31T10:43:42;19.30;99.90
52643;DHT22;38531;53.296;6.614;2023-07-31T10:46:11;19.40;99.90
52643;DHT22;38531;53.296;6.614;2023-07-31T10:48:37;19.30;99.90
52643;DHT22;38531;53.296;6.614;2023-07-31T10:51:11;19.40;99.90
52643;DHT22;38531;53.296;6.614;2023-07-31T10:53:38;19.50;99.90
52643;DHT22;38531;53.296;6.614;2023-07-31T10:56:07;19.60;99.90
52643;DHT22;38531;53.296;6.614;2023-07-31T10:58:33;19.70;99.90
52643;DHT22;38531;53.296;6.614;2023-07-31T11:01:06;19.90;99.90
52643;DHT22;38531;53.296;6.614;2023-07-31T11:13:39;20.90;99.90
52643;DHT22;38531;53.296;6.614;2023-07-31T11:16:06;21.10;99.90
52643;DHT22;38531;53.296;6.614;2023-07-31T11:18:32;21.20;99.90
52643;DHT22;38531;53.296;6.614;2023-07-31T11:20:58;21.20;99.90
52643;DHT22;38531;53.296;6.614;2023-07-31T11:23:24;21.00;99.90
52643;DHT22;38531;53.296;6.614;2023-07-31T11:25:50;21.10;99.90
52643;DHT22;38531;53.296;6.614;2023-07-31T11:28:17;20.80;99.90
52643;DHT22;38531;53.296;6.614;2023-07-31T11:30:46;20.70;99.90
52643;DHT22;38531;53.296;6.614;2023-07-31T11:33:20;20.70;99.90
52643;DHT22;38531;53.296;6.614;2023-07-31T11:35:49;20.70;99.90
52643;DHT22;38531;53.296;6.614;2023-07-31T11:38:22;20.60;99.90
52643;DHT22;38531;53.296;6.614;2023-07-31T11:40:49;20.70;99.90
52643;DHT22;38531;53.296;6.614;2023-07-31T11:43:15;20.80;99.90
52643;DHT22;38531;53.296;6.614;2023-07-31T11:45:48;20.70;99.90
52643;DHT22;38531;53.296;6.614;2023-07-31T11:48:31;20.70;99.90
52643;DHT22;38531;53.296;6.614;2023-07-31T11:51:00;20.70;99.90
52643;DHT22;38531;53.296;6.614;2023-07-31T11:53:33;20.80;99.90
52643;DHT22;38531;53.296;6.614;2023-07-31T11:56:08;20.90;99.90
52643;DHT22;38531;53.296;6.614;2023-07-31T11:58:36;21.00;99.90
52643;DHT22;38531;53.296;6.614;2023-07-31T12:01:02;21.10;99.90
52643;DHT22;38531;53.296;6.614;2023-07-31T12:07:27;21.30;99.90
52643;DHT22;38531;53.296;6.614;2023-07-31T12:09:56;21.60;99.90
52643;DHT22;38531;53.296;6.614;2023-07-31T12:12:24;21.60;99.90
52643;DHT22;38531;53.296;6.614;2023-07-31T12:14:53;21.50;99.90
52643;DHT22;38531;53.296;6.614;2023-07-31T12:17:20;21.50;99.90
52643;DHT22;38531;53.296;6.614;2023-07-31T12:19:48;21.20;99.90
52643;DHT22;38531;53.296;6.614;2023-07-31T12:22:15;21.00;99.90
52643;DHT22;38531;53.296;6.614;2023-07-31T12:24:43;20.80;99.90
52643;DHT22;38531;53.296;6.614;2023-07-31T12:27:11;20.70;99.90
52643;DHT22;38531;53.296;6.614;2023-07-31T12:29:38;20.70;99.90
52643;DHT22;38531;53.296;6.614;2023-07-31T12:32:18;20.70;99.90
52643;DHT22;38531;53.296;6.614;2023-07-31T12:34:43;20.80;99.90
52643;DHT22;38531;53.296;6.614;2023-07-31T12:37:12;20.90;99.90
52643;DHT22;38531;53.296;6.614;2023-07-31T12:39:38;20.90;99.90
52643;DHT22;38531;53.296;6.614;2023-07-31T12:42:04;20.90;99.90
52643;DHT22;38531;53.296;6.614;2023-07-31T12:44:29;21.00;99.90
52643;DHT22;38531;53.296;6.614;2023-07-31T12:46:55;21.00;99.90
52643;DHT22;38531;53.296;6.614;2023-07-31T12:49:21;21.00;99.90
52643;DHT22;38531;53.296;6.614;2023-07-31T12:51:46;21.00;99.90
52643;DHT22;38531;53.296;6.614;2023-07-31T12:54:12;21.00;99.90
52643;DHT22;38531;53.296;6.614;2023-07-31T12:56:38;21.00;99.90
52643;DHT22;38531;53.296;6.614;2023-07-31T12:59:04;21.10;99.90
52643;DHT22;38531;53.296;6.614;2023-07-31T13:01:29;21.20;99.90
52643;DHT22;38531;53.296;6.614;2023-07-31T13:07:40;21.10;99.90
52643;DHT22;38531;53.296;6.614;2023-07-31T13:10:07;21.00;99.90
52643;DHT22;38531;53.296;6.614;2023-07-31T13:12:33;21.00;99.90
52643;DHT22;38531;53.296;6.614;2023-07-31T13:14:59;20.90;99.90
52643;DHT22;38531;53.296;6.614;2023-07-31T13:17:25;21.00;99.90
52643;DHT22;38531;53.296;6.614;2023-07-31T13:19:51;20.90;99.90
52643;DHT22;38531;53.296;6.614;2023-07-31T13:22:17;20.90;99.90
52643;DHT22;38531;53.296;6.614;2023-07-31T13:24:43;20.90;99.90
52643;DHT22;38531;53.296;6.614;2023-07-31T13:27:08;20.90;99.90
52643;DHT22;38531;53.296;6.614;2023-07-31T13:29:34;20.90;99.90
52643;DHT22;38531;53.296;6.614;2023-07-31T13:32:00;20.90;99.90
52643;DHT22;38531;53.296;6.614;2023-07-31T13:34:25;20.90;99.90
52643;DHT22;38531;53.296;6.614;2023-07-31T13:36:51;21.00;99.90
52643;DHT22;38531;53.296;6.614;2023-07-31T13:39:16;21.00;99.90
52643;DHT22;38531;53.296;6.614;2023-07-31T13:41:42;21.00;99.90
52643;DHT22;38531;53.296;6.614;2023-07-31T13:44:08;21.00;99.90
52643;DHT22;38531;53.296;6.614;2023-07-31T13:46:34;21.10;99.90
52643;DHT22;38531;53.296;6.614;2023-07-31T13:48:59;21.30;99.90
52643;DHT22;38531;53.296;6.614;2023-07-31T13:51:27;21.40;99.90
52643;DHT22;38531;53.296;6.614;2023-07-31T13:53:53;21.40;99.90
52643;DHT22;38531;53.296;6.614;2023-07-31T13:56:19;21.50;99.90
52643;DHT22;38531;53.296;6.614;2023-07-31T13:58:45;21.70;99.90
52643;DHT22;38531;53.296;6.614;2023-07-31T14:01:10;21.70;99.90
52643;DHT22;38531;53.296;6.614;2023-07-31T14:03:36;21.80;99.90
52643;DHT22;38531;53.296;6.614;2023-07-31T14:06:02;21.80;99.90
52643;DHT22;38531;53.296;6.614;2023-07-31T14:08:28;21.80;99.90
52643;DHT22;38531;53.296;6.614;2023-07-31T14:10:55;21.70;99.90
52643;DHT22;38531;53.296;6.614;2023-07-31T14:13:24;21.70;99.90
52643;DHT22;38531;53.296;6.614;2023-07-31T14:15:49;21.60;99.90
52643;DHT22;38531;53.296;6.614;2023-07-31T14:18:15;21.50;99.90
52643;DHT22;38531;53.296;6.614;2023-07-31T14:20:41;21.60;99.90
52643;DHT22;38531;53.296;6.614;2023-07-31T14:23:09;21.60;99.90
52643;DHT22;38531;53.296;6.614;2023-07-31T14:25:35;21.50;99.90
52643;DHT22;38531;53.296;6.614;2023-07-31T14:28:01;21.50;99.90
52643;DHT22;38531;53.296;6.614;2023-07-31T14:30:26;21.50;99.90
52643;DHT22;38531;53.296;6.614;2023-07-31T14:32:54;21.50;99.90
52643;DHT22;38531;53.296;6.614;2023-07-31T14:35:20;21.50;99.90
52643;DHT22;38531;53.296;6.614;2023-07-31T14:37:46;21.40;99.90
52643;DHT22;38531;53.296;6.614;2023-07-31T14:40:12;21.40;99.90
52643;DHT22;38531;53.296;6.614;2023-07-31T14:42:39;21.30;99.90
52643;DHT22;38531;53.296;6.614;2023-07-31T14:45:06;21.20;99.90
52643;DHT22;38531;53.296;6.614;2023-07-31T14:47:32;21.20;99.90
52643;DHT22;38531;53.296;6.614;2023-07-31T14:49:59;21.20;99.90
52643;DHT22;38531;53.296;6.614;2023-07-31T14:52:25;21.10;99.90
52643;DHT22;38531;53.296;6.614;2023-07-31T14:54:51;21.10;99.90
52643;DHT22;38531;53.296;6.614;2023-07-31T14:57:17;21.20;99.90
52643;DHT22;38531;53.296;6.614;2023-07-31T14:59:43;21.20;99.90
52643;DHT22;38531;53.296;6.614;2023-07-31T15:02:09;21.10;99.90
52643;DHT22;38531;53.296;6.614;2023-07-31T15:04:38;21.00;99.90
52643;DHT22;38531;53.296;6.614;2023-07-31T15:07:04;21.00;99.90
52643;DHT22;38531;53.296;6.614;2023-07-31T15:09:30;20.90;99.90
52643;DHT22;38531;53.296;6.614;2023-07-31T15:11:56;20.90;99.90
52643;DHT22;38531;53.296;6.614;2023-07-31T15:14:23;20.80;99.90
52643;DHT22;38531;53.296;6.614;2023-07-31T15:16:49;20.90;99.90
52643;DHT22;38531;53.296;6.614;2023-07-31T15:23:32;20.70;99.90
52643;DHT22;38531;53.296;6.614;2023-07-31T15:25:58;20.70;99.90
52643;DHT22;38531;53.296;6.614;2023-07-31T15:28:23;20.60;99.90
52643;DHT22;38531;53.296;6.614;2023-07-31T15:30:49;20.50;99.90
52643;DHT22;38531;53.296;6.614;2023-07-31T15:33:15;20.50;99.90
52643;DHT22;38531;53.296;6.614;2023-07-31T15:35:41;20.50;99.90
52643;DHT22;38531;53.296;6.614;2023-07-31T15:38:07;20.40;99.90
52643;DHT22;38531;53.296;6.614;2023-07-31T15:40:33;20.40;99.90
52643;DHT22;38531;53.296;6.614;2023-07-31T15:42:58;20.40;99.90
52643;DHT22;38531;53.296;6.614;2023-07-31T15:45:26;20.40;99.90
52643;DHT22;38531;53.296;6.614;2023-07-31T15:47:51;20.40;99.90
52643;DHT22;38531;53.296;6.614;2023-07-31T15:50:17;20.40;99.90
52643;DHT22;38531;53.296;6.614;2023-07-31T15:52:43;20.30;99.90
52643;DHT22;38531;53.296;6.614;2023-07-31T15:55:10;20.30;99.90
52643;DHT22;38531;53.296;6.614;2023-07-31T15:57:36;20.30;99.90
52643;DHT22;38531;53.296;6.614;2023-07-31T16:00:02;20.30;99.90
52643;DHT22;38531;53.296;6.614;2023-07-31T16:02:28;20.30;99.90
52643;DHT22;38531;53.296;6.614;2023-07-31T16:04:54;20.30;99.90
52643;DHT22;38531;53.296;6.614;2023-07-31T16:07:21;20.30;99.90
52643;DHT22;38531;53.296;6.614;2023-07-31T16:10:03;20.20;99.90
52643;DHT22;38531;53.296;6.614;2023-07-31T16:12:42;20.30;99.90
52643;DHT22;38531;53.296;6.614;2023-07-31T16:17:43;20.30;99.90
52643;DHT22;38531;53.296;6.614;2023-07-31T16:20:09;20.20;99.90
52643;DHT22;38531;53.296;6.614;2023-07-31T16:22:35;20.20;99.90
52643;DHT22;38531;53.296;6.614;2023-07-31T16:25:01;20.20;99.90
52643;DHT22;38531;53.296;6.614;2023-07-31T16:27:29;20.10;99.90
52643;DHT22;38531;53.296;6.614;2023-07-31T16:29:54;20.10;99.90
52643;DHT22;38531;53.296;6.614;2023-07-31T16:32:21;20.10;99.90
52643;DHT22;38531;53.296;6.614;2023-07-31T16:34:47;20.10;99.90
52643;DHT22;38531;53.296;6.614;2023-07-31T16:37:13;20.10;99.90
52643;DHT22;38531;53.296;6.614;2023-07-31T16:39:41;20.20;99.90
52643;DHT22;38531;53.296;6.614;2023-07-31T16:42:12;20.10;99.90
52643;DHT22;38531;53.296;6.614;2023-07-31T16:44:38;20.20;99.90
52643;DHT22;38531;53.296;6.614;2023-07-31T16:47:35;20.10;99.90
52643;DHT22;38531;53.296;6.614;2023-07-31T17:33:04;19.60;99.90
52643;DHT22;38531;53.296;6.614;2023-07-31T19:25:31;18.60;99.90
52643;DHT22;38531;53.296;6.614;2023-07-31T19:27:56;18.60;99.90
52643;DHT22;38531;53.296;6.614;2023-07-31T19:30:22;18.50;99.90
52643;DHT22;38531;53.296;6.614;2023-07-31T19:32:47;18.70;99.90
52643;DHT22;38531;53.296;6.614;2023-07-31T19:35:14;18.50;99.90
52643;DHT22;38531;53.296;6.614;2023-07-31T19:37:40;18.40;99.90
52643;DHT22;38531;53.296;6.614;2023-07-31T19:40:06;18.40;99.90
52643;DHT22;38531;53.296;6.614;2023-07-31T19:42:34;18.40;99.90
52643;DHT22;38531;53.296;6.614;2023-07-31T19:45:04;18.40;99.90
52643;DHT22;38531;53.296;6.614;2023-07-31T19:47:30;18.30;99.90
52643;DHT22;38531;53.296;6.614;2023-07-31T19:49:56;18.30;99.90
52643;DHT22;38531;53.296;6.614;2023-07-31T19:52:22;18.30;99.90
52643;DHT22;38531;53.296;6.614;2023-07-31T19:54:47;18.20;99.90
52643;DHT22;38531;53.296;6.614;2023-07-31T19:57:13;18.20;99.90
52643;DHT22;38531;53.296;6.614;2023-07-31T19:59:39;18.00;99.90
52643;DHT22;38531;53.296;6.614;2023-07-31T20:02:05;18.10;99.90
52643;DHT22;38531;53.296;6.614;2023-07-31T20:04:31;18.10;99.90
52643;DHT22;38531;53.296;6.614;2023-07-31T20:06:57;18.10;99.90
52643;DHT22;38531;53.296;6.614;2023-07-31T20:09:23;18.10;99.90
52643;DHT22;38531;53.296;6.614;2023-07-31T20:11:48;18.00;99.90
52643;DHT22;38531;53.296;6.614;2023-07-31T20:14:14;18.00;99.90
52643;DHT22;38531;53.296;6.614;2023-07-31T20:16:40;18.00;99.90
52643;DHT22;38531;53.296;6.614;2023-07-31T20:19:07;18.00;99.90
52643;DHT22;38531;53.296;6.614;2023-07-31T20:21:32;18.00;99.90
52643;DHT22;38531;53.296;6.614;2023-07-31T20:23:58;18.00;99.90
52643;DHT22;38531;53.296;6.614;2023-07-31T20:26:24;18.00;99.90
52643;DHT22;38531;53.296;6.614;2023-07-31T20:28:49;18.00;99.90
52643;DHT22;38531;53.296;6.614;2023-07-31T20:31:15;18.00;99.90
52643;DHT22;38531;53.296;6.614;2023-07-31T20:33:42;17.90;99.90
52643;DHT22;38531;53.296;6.614;2023-07-31T20:36:09;17.90;99.90
52643;DHT22;38531;53.296;6.614;2023-07-31T20:38:42;18.00;99.90
52643;DHT22;38531;53.296;6.614;2023-07-31T20:41:10;17.90;99.90
52643;DHT22;38531;53.296;6.614;2023-07-31T20:43:36;17.90;99.90
52643;DHT22;38531;53.296;6.614;2023-07-31T20:46:02;17.90;99.90
52643;DHT22;38531;53.296;6.614;2023-07-31T20:48:28;17.90;99.90
52643;DHT22;38531;53.296;6.614;2023-07-31T20:50:54;17.90;99.90
52643;DHT22;38531;53.296;6.614;2023-07-31T20:53:24;17.90;99.90
52643;DHT22;38531;53.296;6.614;2023-07-31T20:55:50;17.90;99.90
52643;DHT22;38531;53.296;6.614;2023-07-31T20:58:15;17.80;99.90
52643;DHT22;38531;53.296;6.614;2023-07-31T21:00:41;17.80;99.90
52643;DHT22;38531;53.296;6.614;2023-07-31T21:03:10;17.80;99.90
52643;DHT22;38531;53.296;6.614;2023-07-31T21:05:36;17.80;99.90